Aeroporto :
LOGIN :

Iscrizione | Disclaimer

   EN    FR    IT 

 










Sommario :    VFR   VFR Marginale   IFR   IFR Intensivo   IFR Molto Intensivo
Visibilità : 
Base nubi : 
>= 8 km
>= 3000ft
5 / 8 km
1000 / 3000 ft
1500m / 5 km
500 / 1000 ft
800 / 1500m
200 / 500 ft
< 800m
< 200 ft
Simboli :   Temporali  Nebbia  Neve Forte  Precipitazioni Forti  Vento > 20 kt
SIGMETs :   Varie  Temporali  Ghiacco  Turbolenza  Onda orograficha  Ceneri Vulcaniche






- Altitudine del aeroporto : 245 ft


ETHS - Fassberg

ULTIMO METAR :
  • 121020Z 21010KT 9999 FEW035 07/01 Q1002 BLU+BLU TEMPO WHT

METARs OBSOLETI :
  • 120920Z 22011KT 9999 FEW032 06/01 Q1003 BLU+BLU TEMPO WHT
  • 120820Z 21011KT 9999 FEW055 05/01 Q1003 BLU+BLU TEMPO WHT

TAF TAF ETHS
Valido dal 12 a 09 ore il 12 a 18 ore UTC


120819Z 1209/1218 19008KT 9999 NSW BKN030
TEMPO 1210/1214 20010G20KT 9999 NSW BKN020



MetMap, La meteo Aeronautica in un colpo d'occhio ! - Copyright ORBIFLY Dicembre 2007 - Disclaimer

ORBIFLY MET'MAP TEAM :

Programmazione e sviluppo : Alexandra Zaïnal
Concezione e sviluppo : Baudouin d'Aumeries
Co-Programmazione e sviluppo : Marc-Olivier Méhu
Supporto tecnico e logistico : Manuel Goepfert
Aiuto per la traduzione : Arnaldo La Scala

Contatto : metmap@orbifly.com




FONTI E CREDITI :

   NOAA